Time;durP1;ratioP1;P1;durP2;ratioP2;P2;SDS_P1;SDS_P2;PMS_P1;PMS_P2;Temp;Humidity;BMP_temperature;BMP_pressure;BME280_temperature;BME280_humidity;BME280_pressure;Samples;Min_cycle;Max_cycle;Signal;HPM_P1;HPM_P2
2021/12/09 17:06:40;;;;;;;19.23;3.40;;;;;;;;;;5097858;27;1378290;-64
2021/12/09 17:09:07;;;;;;;21.52;2.65;;;;;;;;;;5128254;27;20033;-64
2021/12/09 17:11:33;;;;;;;30.25;3.75;;;;;;;;;;5127963;27;20034;-65
2021/12/09 17:14:05;;;;;;;20.88;4.25;;;;;;;;;;5126381;27;20023;-64
2021/12/09 17:16:31;;;;;;;26.80;4.33;;;;;;;;;;5127958;27;20142;-65
2021/12/09 17:18:57;;;;;;;25.13;3.78;;;;;;;;;;5127333;27;20630;-64
2021/12/09 17:21:23;;;;;;;42.70;3.90;;;;;;;;;;5127624;27;20031;-65
2021/12/09 17:23:50;;;;;;;35.13;5.93;;;;;;;;;;5120720;27;20106;-65
2021/12/09 17:26:16;;;;;;;25.98;4.90;;;;;;;;;;5125920;27;20415;-66
2021/12/09 17:28:42;;;;;;;39.63;8.25;;;;;;;;;;5128007;27;20023;-64
2021/12/09 17:31:09;;;;;;;34.40;6.55;;;;;;;;;;5127037;27;20020;-64
2021/12/09 17:33:35;;;;;;;29.50;5.43;;;;;;;;;;5123824;27;20023;-64
2021/12/09 17:36:02;;;;;;;32.35;6.72;;;;;;;;;;5126439;28;20110;-64
2021/12/09 17:38:28;;;;;;;27.17;6.80;;;;;;;;;;5121860;28;20035;-64
2021/12/09 17:40:54;;;;;;;28.50;6.75;;;;;;;;;;5126381;27;20073;-64
2021/12/09 17:43:21;;;;;;;48.40;8.20;;;;;;;;;;5125887;27;20042;-64
2021/12/09 17:45:47;;;;;;;36.45;6.70;;;;;;;;;;5122108;27;20034;-64
2021/12/09 17:48:15;;;;;;;39.55;5.97;;;;;;;;;;5125231;28;20306;-65
2021/12/09 17:50:41;;;;;;;31.05;5.82;;;;;;;;;;5124694;27;20045;-64
2021/12/09 17:53:09;;;;;;;29.10;7.60;;;;;;;;;;5126947;27;20035;-64
2021/12/09 17:55:36;;;;;;;38.60;6.65;;;;;;;;;;5125495;28;20470;-64
2021/12/09 17:58:02;;;;;;;34.72;8.25;;;;;;;;;;5126320;27;20037;-64
2021/12/09 18:00:29;;;;;;;32.03;6.15;;;;;;;;;;5119375;28;20034;-64
2021/12/09 18:02:55;;;;;;;43.03;7.72;;;;;;;;;;5115509;27;20102;-64
2021/12/09 18:05:21;;;;;;;37.40;10.27;;;;;;;;;;5114198;28;20035;-65
2021/12/09 18:07:51;;;;;;;33.92;9.43;;;;;;;;;;5117685;27;20035;-64
2021/12/09 18:10:17;;;;;;;34.85;10.10;;;;;;;;;;5121879;28;20051;-65
2021/12/09 18:12:43;;;;;;;41.20;10.20;;;;;;;;;;5114956;28;20031;-64
2021/12/09 18:15:17;;;;;;;45.65;10.35;;;;;;;;;;5127121;27;20035;-64
2021/12/09 18:17:44;;;;;;;55.40;12.18;;;;;;;;;;5114470;27;20478;-65
2021/12/09 18:20:13;;;;;;;47.30;12.43;;;;;;;;;;5102404;28;20335;-64
2021/12/09 18:22:39;;;;;;;44.40;11.52;;;;;;;;;;5111801;28;20390;-65
2021/12/09 18:25:06;;;;;;;44.10;14.10;;;;;;;;;;5112852;27;20076;-64
2021/12/09 18:27:32;;;;;;;52.30;13.50;;;;;;;;;;5112887;28;20110;-64
2021/12/09 18:29:58;;;;;;;46.38;11.48;;;;;;;;;;5104466;28;20016;-65
2021/12/09 18:32:24;;;;;;;41.05;11.18;;;;;;;;;;5112552;28;21787;-65
2021/12/09 18:34:56;;;;;;;57.70;11.35;;;;;;;;;;5111879;28;20023;-65
2021/12/09 18:37:31;;;;;;;58.45;12.48;;;;;;;;;;5112578;28;20378;-64
2021/12/09 18:39:57;;;;;;;40.95;9.10;;;;;;;;;;5112597;28;20068;-65
2021/12/09 18:42:24;;;;;;;40.15;10.80;;;;;;;;;;5112114;28;20031;-65
2021/12/09 18:44:52;;;;;;;55.10;17.00;;;;;;;;;;5112520;28;20432;-65
2021/12/09 18:47:18;;;;;;;47.13;17.08;;;;;;;;;;5112113;28;20022;-65
2021/12/09 18:49:45;;;;;;;49.30;13.93;;;;;;;;;;5112453;28;20028;-64
2021/12/09 18:52:11;;;;;;;49.05;11.57;;;;;;;;;;5111910;28;20015;-65
2021/12/09 18:54:37;;;;;;;42.03;8.93;;;;;;;;;;5112122;28;20035;-65
2021/12/09 18:57:03;;;;;;;39.35;11.13;;;;;;;;;;5112643;28;20035;-65
2021/12/09 18:59:29;;;;;;;53.22;10.70;;;;;;;;;;5109738;28;20071;-65
2021/12/09 19:01:57;;;;;;;45.53;10.77;;;;;;;;;;5112074;28;20020;-65
2021/12/09 19:04:23;;;;;;;43.00;10.32;;;;;;;;;;5111940;28;20031;-65
2021/12/09 19:06:50;;;;;;;57.67;13.88;;;;;;;;;;5109052;28;20417;-65
2021/12/09 19:09:16;;;;;;;43.33;12.35;;;;;;;;;;5111107;28;20036;-66
2021/12/09 19:11:43;;;;;;;54.58;17.38;;;;;;;;;;5105681;28;20027;-65
2021/12/09 19:14:09;;;;;;;87.75;28.02;;;;;;;;;;5112037;27;20024;-65
2021/12/09 19:16:40;;;;;;;93.32;29.98;;;;;;;;;;5111848;27;20061;-65
2021/12/09 19:19:10;;;;;;;81.97;25.17;;;;;;;;;;5107673;28;20031;-65
2021/12/09 19:21:36;;;;;;;67.22;16.38;;;;;;;;;;5110543;28;20024;-65
2021/12/09 19:24:02;;;;;;;70.90;24.33;;;;;;;;;;5109063;28;20718;-65
2021/12/09 19:26:29;;;;;;;56.63;12.77;;;;;;;;;;5096674;28;20478;-65
2021/12/09 19:28:55;;;;;;;81.15;24.70;;;;;;;;;;5110607;28;20027;-66
2021/12/09 19:31:21;;;;;;;68.93;15.32;;;;;;;;;;5111808;28;20077;-66
2021/12/09 19:33:47;;;;;;;94.22;30.30;;;;;;;;;;5111475;28;20051;-66
2021/12/09 19:36:14;;;;;;;76.03;23.73;;;;;;;;;;5111255;28;20043;-66
2021/12/09 19:38:42;;;;;;;69.28;19.73;;;;;;;;;;5107985;28;20031;-65
2021/12/09 19:41:09;;;;;;;79.20;31.40;;;;;;;;;;5104041;28;20019;-66
2021/12/09 19:43:36;;;;;;;45.30;16.33;;;;;;;;;;5110924;28;20037;-65
2021/12/09 19:46:02;;;;;;;60.22;20.08;;;;;;;;;;5102366;28;20556;-66
2021/12/09 19:48:29;;;;;;;41.78;10.82;;;;;;;;;;5110768;28;20028;-65
2021/12/09 19:50:55;;;;;;;42.75;11.90;;;;;;;;;;5106967;28;20047;-64
2021/12/09 19:53:21;;;;;;;62.47;19.80;;;;;;;;;;5102851;28;20374;-65
2021/12/09 19:55:47;;;;;;;54.35;14.80;;;;;;;;;;5110619;28;20031;-67
2021/12/09 19:58:13;;;;;;;49.75;15.45;;;;;;;;;;5110043;28;20055;-66
2021/12/09 20:00:39;;;;;;;71.47;21.65;;;;;;;;;;5110543;28;20031;-66
2021/12/09 20:03:06;;;;;;;65.45;19.48;;;;;;;;;;5110659;28;20491;-69
2021/12/09 20:05:32;;;;;;;59.63;14.57;;;;;;;;;;5106467;28;20151;-67
2021/12/09 20:07:58;;;;;;;45.75;9.27;;;;;;;;;;5105770;28;20497;-67
2021/12/09 20:10:25;;;;;;;48.38;9.70;;;;;;;;;;5094301;28;20035;-67
2021/12/09 20:12:52;;;;;;;46.08;11.75;;;;;;;;;;5093511;28;20023;-67
2021/12/09 20:15:18;;;;;;;58.92;19.40;;;;;;;;;;5094571;28;20028;-67
2021/12/09 20:17:44;;;;;;;43.67;9.13;;;;;;;;;;5091022;28;20529;-68
2021/12/09 20:20:11;;;;;;;54.28;14.02;;;;;;;;;;5093106;28;20033;-67
2021/12/09 20:22:37;;;;;;;37.03;9.35;;;;;;;;;;5092540;28;20243;-65
2021/12/09 20:25:06;;;;;;;39.33;6.63;;;;;;;;;;5092114;28;20032;-67
2021/12/09 20:27:32;;;;;;;40.70;8.45;;;;;;;;;;5094608;28;20571;-67
2021/12/09 20:29:58;;;;;;;52.40;12.18;;;;;;;;;;5101380;28;20702;-66
2021/12/09 20:32:24;;;;;;;44.22;9.90;;;;;;;;;;5094114;28;20410;-67
2021/12/09 20:34:51;;;;;;;40.05;13.23;;;;;;;;;;5094411;28;20107;-66
2021/12/09 20:37:18;;;;;;;43.58;12.23;;;;;;;;;;5094051;28;20034;-67
2021/12/09 20:39:44;;;;;;;49.42;11.00;;;;;;;;;;5092870;28;20039;-67
2021/12/09 20:42:11;;;;;;;46.20;15.00;;;;;;;;;;5108015;28;20525;-67
2021/12/09 20:44:37;;;;;;;44.30;12.70;;;;;;;;;;5106134;28;20027;-66
2021/12/09 20:47:04;;;;;;;33.90;10.50;;;;;;;;;;5092624;28;20020;-66
2021/12/09 20:49:30;;;;;;;26.23;8.77;;;;;;;;;;5108238;28;20432;-67
2021/12/09 20:51:56;;;;;;;39.35;9.70;;;;;;;;;;5107890;28;20080;-66
2021/12/09 20:54:22;;;;;;;36.08;7.70;;;;;;;;;;5106473;28;20020;-66
2021/12/09 20:56:49;;;;;;;36.22;8.15;;;;;;;;;;5089353;28;20024;-66
2021/12/09 20:59:15;;;;;;;33.28;6.97;;;;;;;;;;5093454;28;20020;-65
2021/12/09 21:01:41;;;;;;;44.78;8.50;;;;;;;;;;5089749;28;20039;-65
2021/12/09 21:04:07;;;;;;;43.97;7.07;;;;;;;;;;5098688;28;20027;-65
2021/12/09 21:06:33;;;;;;;33.05;8.30;;;;;;;;;;5103385;28;20699;-66
2021/12/09 21:09:00;;;;;;;28.95;8.93;;;;;;;;;;5108995;28;20055;-66
2021/12/09 21:11:28;;;;;;;38.42;9.50;;;;;;;;;;5109480;28;20458;-65
2021/12/09 21:13:57;;;;;;;34.00;8.15;;;;;;;;;;5098277;28;20550;-68
2021/12/09 21:16:23;;;;;;;46.65;9.65;;;;;;;;;;5094967;28;20019;-65
2021/12/09 21:18:49;;;;;;;37.58;8.98;;;;;;;;;;5109765;28;20042;-65
2021/12/09 21:21:15;;;;;;;37.10;10.52;;;;;;;;;;5109083;28;20032;-66
2021/12/09 21:23:42;;;;;;;40.13;10.38;;;;;;;;;;5109164;28;20504;-66
2021/12/09 21:26:09;;;;;;;51.15;12.02;;;;;;;;;;5108957;28;20102;-67
2021/12/09 21:28:35;;;;;;;32.67;6.97;;;;;;;;;;5109704;28;20088;-66
2021/12/09 21:31:01;;;;;;;32.10;6.72;;;;;;;;;;5109129;28;20059;-66
2021/12/09 21:33:32;;;;;;;41.83;6.90;;;;;;;;;;5109198;28;20039;-67
2021/12/09 21:36:01;;;;;;;32.65;7.63;;;;;;;;;;5109094;28;20121;-67
2021/12/09 21:38:27;;;;;;;32.13;4.82;;;;;;;;;;5101515;28;20019;-72
2021/12/09 21:40:53;;;;;;;26.95;3.95;;;;;;;;;;5109684;28;20023;-76
2021/12/09 21:43:19;;;;;;;25.50;4.47;;;;;;;;;;5109162;28;20028;-71
2021/12/09 21:45:45;;;;;;;26.60;4.47;;;;;;;;;;5106372;28;20103;-70
2021/12/09 21:48:11;;;;;;;19.42;3.63;;;;;;;;;;5108554;28;20035;-70
2021/12/09 21:50:37;;;;;;;28.20;3.90;;;;;;;;;;5103562;28;20103;-73
2021/12/09 21:53:04;;;;;;;24.60;4.88;;;;;;;;;;5108558;28;20099;-75
2021/12/09 21:55:30;;;;;;;35.90;4.65;;;;;;;;;;5110241;28;20067;-74
2021/12/09 21:57:56;;;;;;;22.70;5.45;;;;;;;;;;5108698;28;20049;-73
2021/12/09 22:00:22;;;;;;;40.53;6.57;;;;;;;;;;5113013;28;20822;-73
2021/12/09 22:02:48;;;;;;;28.70;5.60;;;;;;;;;;5099867;28;20028;-73
2021/12/09 22:05:15;;;;;;;24.92;4.10;;;;;;;;;;5111740;28;20110;-72
2021/12/09 22:07:41;;;;;;;35.28;5.20;;;;;;;;;;5112985;28;20023;-72
2021/12/09 22:10:09;;;;;;;26.30;5.95;;;;;;;;;;5109118;28;20055;-77
2021/12/09 22:12:36;;;;;;;27.98;6.03;;;;;;;;;;5109473;28;20110;-73
2021/12/09 22:15:03;;;;;;;26.23;5.25;;;;;;;;;;5111755;28;20378;-73
2021/12/09 22:17:30;;;;;;;37.40;5.10;;;;;;;;;;5110450;28;20106;-72
2021/12/09 22:19:58;;;;;;;28.95;5.60;;;;;;;;;;5113421;28;20478;-73
2021/12/09 22:22:24;;;;;;;31.58;4.55;;;;;;;;;;5113911;28;20046;-72
2021/12/09 22:24:50;;;;;;;22.98;3.20;;;;;;;;;;5114190;28;20032;-72
2021/12/09 22:27:16;;;;;;;25.13;3.75;;;;;;;;;;5113560;28;20080;-72
2021/12/09 22:29:43;;;;;;;24.13;3.60;;;;;;;;;;5111551;27;20027;-73
2021/12/09 22:32:09;;;;;;;20.13;3.95;;;;;;;;;;5111508;28;20123;-71
2021/12/09 22:34:35;;;;;;;13.02;2.65;;;;;;;;;;5113557;28;20039;-72
2021/12/09 22:37:01;;;;;;;16.27;2.70;;;;;;;;;;5106468;28;20031;-72
2021/12/09 22:39:27;;;;;;;14.30;1.95;;;;;;;;;;5113450;28;20027;-73
2021/12/09 22:41:53;;;;;;;17.73;2.40;;;;;;;;;;5113321;28;20019;-72
2021/12/09 22:44:19;;;;;;;20.40;4.05;;;;;;;;;;5113596;28;20367;-72
2021/12/09 22:46:46;;;;;;;15.65;2.47;;;;;;;;;;5113648;28;20111;-72
2021/12/09 22:49:12;;;;;;;14.25;2.00;;;;;;;;;;5112243;28;20034;-73
2021/12/09 22:51:41;;;;;;;20.05;2.88;;;;;;;;;;5104470;28;20032;-73
2021/12/09 22:54:08;;;;;;;19.50;2.30;;;;;;;;;;5106947;28;20386;-72
2021/12/09 22:56:37;;;;;;;11.27;3.95;;;;;;;;;;5111635;28;20027;-72
2021/12/09 22:59:03;;;;;;;17.95;2.60;;;;;;;;;;5104913;28;20491;-73
2021/12/09 23:01:31;;;;;;;18.52;3.33;;;;;;;;;;5114217;28;20023;-73
2021/12/09 23:03:59;;;;;;;18.23;2.95;;;;;;;;;;5113892;28;20020;-73
2021/12/09 23:06:25;;;;;;;16.60;2.97;;;;;;;;;;5113339;28;20075;-72
2021/12/09 23:08:57;;;;;;;10.43;3.00;;;;;;;;;;5106935;28;20040;-73
2021/12/09 23:11:25;;;;;;;20.10;3.25;;;;;;;;;;5105070;28;20066;-73
